createdAt,value
2018-06-14T00:00:16.026Z,16.83
2018-06-14T00:01:16.047Z,16.79
2018-06-14T00:02:16.114Z,16.89
2018-06-14T00:03:16.075Z,16.86
2018-06-14T00:04:16.096Z,16.82
2018-06-14T00:05:16.110Z,16.82
2018-06-14T00:06:16.126Z,16.83
2018-06-14T00:07:16.140Z,16.78
2018-06-14T00:08:16.156Z,16.76
2018-06-14T00:09:16.178Z,16.78
2018-06-14T00:10:16.189Z,16.78
2018-06-14T00:11:16.202Z,16.75
2018-06-14T00:12:16.225Z,16.73
2018-06-14T00:13:16.241Z,16.73
2018-06-14T00:14:16.304Z,16.79
2018-06-14T00:15:16.269Z,16.81
2018-06-14T00:16:16.291Z,16.76
2018-06-14T00:17:16.300Z,16.75
2018-06-14T00:18:16.318Z,16.73
2018-06-14T00:19:16.409Z,16.70
2018-06-14T00:20:16.363Z,16.70
2018-06-14T00:21:16.374Z,16.68
2018-06-14T00:22:16.389Z,16.70
2018-06-14T00:23:16.404Z,16.68
2018-06-14T00:24:16.413Z,16.71
2018-06-14T00:25:16.468Z,16.67
2018-06-14T00:26:16.504Z,16.61
2018-06-14T00:27:16.469Z,16.66
2018-06-14T00:28:16.487Z,16.61
2018-06-14T00:29:16.497Z,16.64
2018-06-14T00:30:16.519Z,16.64
2018-06-14T00:31:16.532Z,16.63
2018-06-14T00:32:16.604Z,16.66
2018-06-14T00:33:16.562Z,16.61
2018-06-14T00:34:16.580Z,16.58
2018-06-14T00:35:16.598Z,16.70
2018-06-14T00:36:16.612Z,16.67
2018-06-14T00:37:16.630Z,16.68
2018-06-14T00:38:16.697Z,16.66
2018-06-14T00:39:16.664Z,16.70
2018-06-14T00:40:16.678Z,16.68
2018-06-14T00:41:16.691Z,16.58
2018-06-14T00:42:16.709Z,16.70
2018-06-14T00:43:16.814Z,16.63
2018-06-14T00:44:16.743Z,16.58
2018-06-14T00:45:16.756Z,16.58
2018-06-14T00:46:16.773Z,16.64
2018-06-14T00:47:16.792Z,16.53
2018-06-14T00:48:16.804Z,16.53
2018-06-14T00:49:16.873Z,16.53
2018-06-14T00:50:16.842Z,16.52
2018-06-14T00:51:16.856Z,16.46
2018-06-14T00:52:16.871Z,16.49
2018-06-14T00:53:16.887Z,16.50
2018-06-14T00:54:16.912Z,16.52
2018-06-14T00:55:16.986Z,16.57
2018-06-14T00:56:16.988Z,16.49
2018-06-14T00:57:16.957Z,16.53
2018-06-14T00:58:16.970Z,16.52
2018-06-14T00:59:16.985Z,16.52
2018-06-14T01:00:17.008Z,16.48
2018-06-14T01:01:17.037Z,16.53
2018-06-14T01:02:17.042Z,16.50
2018-06-14T01:03:17.053Z,16.46
2018-06-14T01:04:17.073Z,16.46
2018-06-14T01:05:17.082Z,16.49
2018-06-14T01:06:17.098Z,16.45
2018-06-14T01:07:17.150Z,16.45
2018-06-14T01:08:17.140Z,16.43
2018-06-14T01:09:17.154Z,16.42
2018-06-14T01:10:17.169Z,16.39
2018-06-14T01:11:17.185Z,16.48
2018-06-14T01:12:17.199Z,16.42
2018-06-14T01:13:17.218Z,16.39
2018-06-14T01:14:17.231Z,16.50
2018-06-14T01:15:17.245Z,16.41
2018-06-14T01:16:17.262Z,16.48
2018-06-14T01:17:17.283Z,16.43
2018-06-14T01:18:17.295Z,16.41
2018-06-14T01:19:17.390Z,16.45
2018-06-14T01:20:17.328Z,16.41
2018-06-14T01:21:17.344Z,16.42
2018-06-14T01:22:17.374Z,16.41
2018-06-14T01:23:17.378Z,16.42
2018-06-14T01:24:17.396Z,16.39
2018-06-14T01:25:17.457Z,16.46
2018-06-14T01:26:17.475Z,16.42
2018-06-14T01:27:17.440Z,16.45
2018-06-14T01:28:17.460Z,16.49
2018-06-14T01:29:17.479Z,16.43
2018-06-14T01:30:17.495Z,16.45
2018-06-14T01:31:17.585Z,16.42
2018-06-14T01:32:17.520Z,16.52
2018-06-14T01:33:17.539Z,16.53
2018-06-14T01:34:17.558Z,16.48
2018-06-14T01:35:17.567Z,16.43
2018-06-14T01:36:17.591Z,16.45
2018-06-14T01:37:17.622Z,16.41
2018-06-14T01:38:17.624Z,16.39
2018-06-14T01:39:17.639Z,16.30
2018-06-14T01:40:17.654Z,16.38
2018-06-14T01:41:17.668Z,16.42
2018-06-14T01:42:17.681Z,16.41
2018-06-14T01:43:17.697Z,16.33
2018-06-14T01:44:17.765Z,16.46
2018-06-14T01:45:17.733Z,16.38
2018-06-14T01:46:17.747Z,16.42
2018-06-14T01:47:17.764Z,16.34
2018-06-14T01:48:17.791Z,16.41
2018-06-14T01:49:17.800Z,16.34
2018-06-14T01:50:17.817Z,16.43
2018-06-14T01:51:17.828Z,16.42
2018-06-14T01:52:17.843Z,16.38
2018-06-14T01:53:17.860Z,16.31
2018-06-14T01:54:17.874Z,16.33
2018-06-14T01:55:17.896Z,16.33
2018-06-14T01:56:17.920Z,16.39
2018-06-14T01:57:17.928Z,16.45
2018-06-14T01:58:17.942Z,16.33
2018-06-14T01:59:17.960Z,16.45
2018-06-14T02:00:17.978Z,16.41
2018-06-14T02:01:17.985Z,16.31
2018-06-14T02:02:18.063Z,16.33
2018-06-14T02:03:18.019Z,16.35
2018-06-14T02:04:18.035Z,16.42
2018-06-14T02:05:18.054Z,16.34
2018-06-14T02:06:18.090Z,16.33
2018-06-14T02:07:18.088Z,16.39
2018-06-14T02:08:18.157Z,16.39
2018-06-14T02:09:18.119Z,16.39
2018-06-14T02:10:18.134Z,16.35
2018-06-14T02:11:18.152Z,16.34
2018-06-14T02:12:18.189Z,16.33
2018-06-14T02:13:18.184Z,16.35
2018-06-14T02:14:18.201Z,16.35
2018-06-14T02:15:18.210Z,16.24
2018-06-14T02:16:18.226Z,16.24
2018-06-14T02:17:18.258Z,16.28
2018-06-14T02:18:18.340Z,16.35
2018-06-14T02:19:18.278Z,16.33
2018-06-14T02:20:18.293Z,16.39
2018-06-14T02:21:18.311Z,16.39
2018-06-14T02:22:18.324Z,16.38
2018-06-14T02:23:18.341Z,16.41
2018-06-14T02:24:18.419Z,16.34
2018-06-14T02:25:18.374Z,16.39
2018-06-14T02:26:18.393Z,16.42
2018-06-14T02:27:18.410Z,16.31
2018-06-14T02:28:18.425Z,16.35
2018-06-14T02:29:18.436Z,16.31
2018-06-14T02:30:18.458Z,16.27
2018-06-14T02:31:18.471Z,16.30
2018-06-14T02:32:18.488Z,16.27
2018-06-14T02:33:18.499Z,16.27
2018-06-14T02:34:18.519Z,16.25
2018-06-14T02:35:18.531Z,16.28
2018-06-14T02:36:18.571Z,16.27
2018-06-14T02:37:18.621Z,16.31
2018-06-14T02:38:18.581Z,16.23
2018-06-14T02:39:18.604Z,16.31
2018-06-14T02:40:18.615Z,16.23
2018-06-14T02:41:18.632Z,16.30
2018-06-14T02:42:18.734Z,16.12
2018-06-14T02:43:18.711Z,16.31
2018-06-14T02:44:18.679Z,16.28
2018-06-14T02:45:18.696Z,16.27
2018-06-14T02:46:18.715Z,16.28
2018-06-14T02:47:18.729Z,16.24
2018-06-14T02:48:18.755Z,16.31
2018-06-14T02:49:18.812Z,16.23
2018-06-14T02:50:18.775Z,16.12
2018-06-14T02:51:18.789Z,16.23
2018-06-14T02:52:18.808Z,16.21
2018-06-14T02:53:18.825Z,16.21
2018-06-14T02:54:18.838Z,16.14
2018-06-14T02:55:18.854Z,16.17
2018-06-14T02:56:18.865Z,16.12
2018-06-14T02:57:18.883Z,16.21
2018-06-14T02:58:18.902Z,16.23
2018-06-14T02:59:18.963Z,16.14
2018-06-14T03:00:18.935Z,16.14
2018-06-14T03:01:18.949Z,16.09
2018-06-14T03:02:18.961Z,16.12
2018-06-14T03:03:18.986Z,16.15
2018-06-14T03:04:18.997Z,16.11
2018-06-14T03:05:19.017Z,16.15
2018-06-14T03:06:19.030Z,16.12
2018-06-14T03:07:19.105Z,16.14
2018-06-14T03:08:19.060Z,16.12
2018-06-14T03:09:19.076Z,16.12
2018-06-14T03:10:19.093Z,16.20
2018-06-14T03:11:19.106Z,16.14
2018-06-14T03:12:19.128Z,16.12
2018-06-14T03:13:19.191Z,16.20
2018-06-14T03:14:19.159Z,16.07
2018-06-14T03:15:19.169Z,16.08
2018-06-14T03:16:19.194Z,16.05
2018-06-14T03:17:19.204Z,16.05
2018-06-14T03:18:19.224Z,16.09
2018-06-14T03:19:19.237Z,16.07
2018-06-14T03:20:19.257Z,16.05
2018-06-14T03:21:19.270Z,16.09
2018-06-14T03:22:19.290Z,16.05
2018-06-14T03:23:19.298Z,16.04
2018-06-14T03:24:19.320Z,16.07
2018-06-14T03:25:19.337Z,16.09
2018-06-14T03:26:19.349Z,16.02
2018-06-14T03:27:19.365Z,16.07
2018-06-14T03:28:19.385Z,16.14
2018-06-14T03:29:19.401Z,16.09
2018-06-14T03:30:19.420Z,16.11
2018-06-14T03:31:19.433Z,16.14
2018-06-14T03:32:19.448Z,16.12
2018-06-14T03:33:19.460Z,16.15
2018-06-14T03:34:19.499Z,16.08
2018-06-14T03:35:19.496Z,16.11
2018-06-14T03:36:19.512Z,16.12
2018-06-14T03:37:19.527Z,16.09
2018-06-14T03:38:19.543Z,16.14
2018-06-14T03:39:19.562Z,16.14
2018-06-14T03:40:19.576Z,16.14
2018-06-14T03:41:19.588Z,16.12
2018-06-14T03:42:19.604Z,16.09
2018-06-14T03:43:19.626Z,16.14
2018-06-14T03:44:19.643Z,16.14
2018-06-14T03:45:19.659Z,16.11
2018-06-14T03:46:19.685Z,16.12
2018-06-14T03:47:19.686Z,16.12
2018-06-14T03:48:19.701Z,16.14
2018-06-14T03:49:19.720Z,16.21
2018-06-14T03:50:19.732Z,16.12
2018-06-14T03:51:19.752Z,16.12
2018-06-14T03:52:19.771Z,16.14
2018-06-14T03:53:19.781Z,16.14
2018-06-14T03:54:19.795Z,16.15
2018-06-14T03:55:19.816Z,16.14
2018-06-14T03:56:19.826Z,16.15
2018-06-14T03:57:19.846Z,16.14
2018-06-14T03:58:19.892Z,16.12
2018-06-14T03:59:19.874Z,16.15
2018-06-14T04:00:19.895Z,16.14
2018-06-14T04:01:19.912Z,16.12
2018-06-14T04:02:19.930Z,16.11
2018-06-14T04:03:19.940Z,16.12
2018-06-14T04:04:19.982Z,16.15
2018-06-14T04:05:19.969Z,16.14
2018-06-14T04:06:19.988Z,16.21
2018-06-14T04:07:20.054Z,16.09
2018-06-14T04:08:20.025Z,16.05
2018-06-14T04:09:20.042Z,16.15
2018-06-14T04:10:20.081Z,16.07
2018-06-14T04:11:20.072Z,16.11
2018-06-14T04:12:20.083Z,16.12
2018-06-14T04:13:20.151Z,16.09
2018-06-14T04:14:20.119Z,16.08
2018-06-14T04:15:20.133Z,16.21
2018-06-14T04:16:20.148Z,16.20
2018-06-14T04:17:20.167Z,16.14
2018-06-14T04:18:20.177Z,16.09
2018-06-14T04:19:20.202Z,16.11
2018-06-14T04:20:20.216Z,16.21
2018-06-14T04:21:20.235Z,16.14
2018-06-14T04:22:20.257Z,16.14
2018-06-14T04:23:20.261Z,16.15
2018-06-14T04:24:20.275Z,16.14
2018-06-14T04:25:20.291Z,16.11
2018-06-14T04:26:20.310Z,16.17
2018-06-14T04:27:20.332Z,16.17
2018-06-14T04:28:20.373Z,16.17
2018-06-14T04:29:20.352Z,16.09
2018-06-14T04:30:20.369Z,16.14
2018-06-14T04:31:20.386Z,16.11
2018-06-14T04:32:20.407Z,16.09
2018-06-14T04:33:20.423Z,16.14
2018-06-14T04:34:20.475Z,16.15
2018-06-14T04:35:20.453Z,16.17
2018-06-14T04:36:20.472Z,16.15
2018-06-14T04:37:20.485Z,16.14
2018-06-14T04:38:20.511Z,16.17
2018-06-14T04:39:20.555Z,16.20
2018-06-14T04:40:20.572Z,16.14
2018-06-14T04:41:20.548Z,16.15
2018-06-14T04:42:20.563Z,16.15
2018-06-14T04:43:20.593Z,16.11
2018-06-14T04:44:20.593Z,16.14
2018-06-14T04:45:20.610Z,16.23
2018-06-14T04:46:20.624Z,16.12
2018-06-14T04:47:20.646Z,16.12
2018-06-14T04:48:20.660Z,16.11
2018-06-14T04:49:20.726Z,16.12
2018-06-14T04:50:20.691Z,16.17
2018-06-14T04:51:20.706Z,16.12
2018-06-14T04:52:20.725Z,16.12
2018-06-14T04:53:20.743Z,16.11
2018-06-14T04:54:20.754Z,16.17
2018-06-14T04:55:20.776Z,16.11
2018-06-14T04:56:20.792Z,16.15
2018-06-14T04:57:20.807Z,16.12
2018-06-14T04:58:20.818Z,16.11
2018-06-14T04:59:20.831Z,16.12
2018-06-14T05:00:20.852Z,16.20
2018-06-14T05:01:20.865Z,16.21
2018-06-14T05:02:20.920Z,16.14
2018-06-14T05:03:20.901Z,16.11
2018-06-14T05:04:20.912Z,16.12
2018-06-14T05:05:20.929Z,16.14
2018-06-14T05:06:20.947Z,16.12
2018-06-14T05:07:21.016Z,16.09
2018-06-14T05:08:20.982Z,16.07
2018-06-14T05:09:20.990Z,16.09
2018-06-14T05:10:21.011Z,16.08
2018-06-14T05:11:21.028Z,16.11
2018-06-14T05:12:21.048Z,16.07
2018-06-14T05:13:21.057Z,16.11
2018-06-14T05:14:21.081Z,16.09
2018-06-14T05:15:21.090Z,16.07
2018-06-14T05:16:21.108Z,16.15
2018-06-14T05:17:21.121Z,16.14
2018-06-14T05:18:21.138Z,16.14
2018-06-14T05:19:21.156Z,16.12
2018-06-14T05:20:21.175Z,16.20
2018-06-14T05:21:21.187Z,16.17
2018-06-14T05:22:21.202Z,16.12
2018-06-14T05:23:21.223Z,16.15
2018-06-14T05:24:21.236Z,16.25
2018-06-14T05:25:21.300Z,16.20
2018-06-14T05:26:21.267Z,16.23
2018-06-14T05:27:21.284Z,16.38
2018-06-14T05:28:21.296Z,16.38
2018-06-14T05:29:21.315Z,16.30
2018-06-14T05:30:21.331Z,16.33
2018-06-14T05:31:21.399Z,16.33
2018-06-14T05:32:21.360Z,16.27
2018-06-14T05:33:21.378Z,16.30
2018-06-14T05:34:21.393Z,16.33
2018-06-14T05:35:21.415Z,16.25
2018-06-14T05:36:21.451Z,16.33
2018-06-14T05:37:21.491Z,16.45
2018-06-14T05:38:21.464Z,16.35
2018-06-14T05:39:21.476Z,16.34
2018-06-14T05:40:21.493Z,16.38
2018-06-14T05:41:21.505Z,16.43
2018-06-14T05:42:21.545Z,16.34
2018-06-14T05:43:21.538Z,16.45
2018-06-14T05:44:21.552Z,16.48
2018-06-14T05:45:21.576Z,16.39
2018-06-14T05:46:21.617Z,16.45
2018-06-14T05:47:21.604Z,16.42
2018-06-14T05:48:21.618Z,16.45
2018-06-14T05:49:21.637Z,16.43
2018-06-14T05:50:21.655Z,16.57
2018-06-14T05:51:21.667Z,16.48
2018-06-14T05:52:21.712Z,16.46
2018-06-14T05:53:21.699Z,16.49
2018-06-14T05:54:21.721Z,16.50
2018-06-14T05:55:21.730Z,16.56
2018-06-14T05:56:21.746Z,16.68
2018-06-14T05:57:21.760Z,16.58
2018-06-14T05:58:21.780Z,16.61
2018-06-14T05:59:21.796Z,16.66
2018-06-14T06:00:21.813Z,16.67
2018-06-14T06:01:21.880Z,16.70
2018-06-14T06:02:21.849Z,16.75
2018-06-14T06:03:21.858Z,16.71
2018-06-14T06:04:21.944Z,16.66
2018-06-14T06:05:21.895Z,16.73
2018-06-14T06:06:21.912Z,16.73
2018-06-14T06:07:21.976Z,16.86
2018-06-14T06:08:21.945Z,16.79
2018-06-14T06:09:21.958Z,16.83
2018-06-14T06:10:22.003Z,16.88
2018-06-14T06:11:21.989Z,16.93
2018-06-14T06:12:22.011Z,16.88
2018-06-14T06:13:22.072Z,16.98
2018-06-14T06:14:22.043Z,16.89
2018-06-14T06:15:22.052Z,16.96
2018-06-14T06:16:22.074Z,16.98
2018-06-14T06:17:22.084Z,16.94
2018-06-14T06:18:22.113Z,16.96
2018-06-14T06:19:22.123Z,17.01
2018-06-14T06:20:22.135Z,17.06
2018-06-14T06:21:22.158Z,17.06
2018-06-14T06:22:22.165Z,17.08
2018-06-14T06:23:22.237Z,17.08
2018-06-14T06:24:22.204Z,17.14
2018-06-14T06:25:22.213Z,17.16
2018-06-14T06:26:22.318Z,17.22
2018-06-14T06:27:22.247Z,17.19
2018-06-14T06:28:22.266Z,17.26
2018-06-14T06:29:22.282Z,17.36
2018-06-14T06:30:22.298Z,17.33
2018-06-14T06:31:22.315Z,17.44
2018-06-14T06:32:22.332Z,17.59
2018-06-14T06:33:22.419Z,17.56
2018-06-14T06:34:22.364Z,17.63
2018-06-14T06:35:22.380Z,17.70
2018-06-14T06:36:22.412Z,17.79
2018-06-14T06:37:22.466Z,17.92
2018-06-14T06:38:22.430Z,18.02
2018-06-14T06:39:22.446Z,18.15
2018-06-14T06:40:22.467Z,18.18
2018-06-14T06:41:22.497Z,18.20
2018-06-14T06:42:22.504Z,18.27
2018-06-14T06:43:22.522Z,18.37
2018-06-14T06:44:22.529Z,18.47
2018-06-14T06:45:22.598Z,18.48
2018-06-14T06:46:22.561Z,18.45
2018-06-14T06:47:22.627Z,18.60
2018-06-14T06:48:22.599Z,18.55
2018-06-14T06:49:22.614Z,18.70
2018-06-14T06:50:22.628Z,18.54
2018-06-14T06:51:22.663Z,18.72
2018-06-14T06:52:22.660Z,18.70
2018-06-14T06:53:22.738Z,18.76
2018-06-14T06:54:22.695Z,18.78
2018-06-14T06:55:22.716Z,18.70
2018-06-14T06:56:22.732Z,18.81
2018-06-14T06:57:22.745Z,19.06
2018-06-14T06:58:22.767Z,19.11
2018-06-14T07:00:22.796Z,19.32
2018-06-14T07:01:22.868Z,19.26
2018-06-14T07:02:22.833Z,19.41
2018-06-14T07:03:22.856Z,19.50
2018-06-14T07:04:22.871Z,19.66
2018-06-14T07:05:22.881Z,19.63
2018-06-14T07:06:22.908Z,19.86
2018-06-14T07:07:22.975Z,19.77
2018-06-14T07:08:22.936Z,19.83
2018-06-14T07:09:22.960Z,19.91
2018-06-14T07:10:22.970Z,19.81
2018-06-14T07:11:22.991Z,19.76
2018-06-14T07:12:23.004Z,19.86
2018-06-14T07:13:23.026Z,19.96
2018-06-14T07:14:23.050Z,19.84
2018-06-14T07:15:23.064Z,19.69
2018-06-14T07:16:23.084Z,19.98
2018-06-14T07:17:23.095Z,20.08
2018-06-14T07:18:23.116Z,20.05
2018-06-14T07:19:23.185Z,20.13
2018-06-14T07:20:23.148Z,19.86
2018-06-14T07:21:23.167Z,20.02
2018-06-14T07:22:23.187Z,20.18
2018-06-14T07:23:23.205Z,20.26
2018-06-14T07:24:23.220Z,20.28
2018-06-14T07:25:23.288Z,20.31
2018-06-14T07:26:23.262Z,20.02
2018-06-14T07:27:23.276Z,20.18
2018-06-14T07:28:23.300Z,20.28
2018-06-14T07:29:23.314Z,20.26
2018-06-14T07:30:23.332Z,20.38
2018-06-14T07:31:23.353Z,20.38
2018-06-14T07:32:23.367Z,20.35
2018-06-14T07:33:23.384Z,20.36
2018-06-14T07:34:23.438Z,20.54
2018-06-14T07:35:23.422Z,20.52
2018-06-14T07:36:23.442Z,20.64
2018-06-14T07:37:23.455Z,20.87
2018-06-14T07:38:23.470Z,21.10
2018-06-14T07:39:23.496Z,21.12
2018-06-14T07:40:23.512Z,20.76
2018-06-14T07:41:23.526Z,20.70
2018-06-14T07:42:23.552Z,20.88
2018-06-14T07:43:23.568Z,20.95
2018-06-14T07:44:23.581Z,20.88
2018-06-14T07:45:23.601Z,20.61
2018-06-14T07:46:23.661Z,20.80
2018-06-14T07:47:23.636Z,20.97
2018-06-14T07:48:23.662Z,20.94
2018-06-14T07:49:23.677Z,21.17
2018-06-14T07:50:23.694Z,21.13
2018-06-14T07:51:23.711Z,20.92
2018-06-14T07:52:23.804Z,20.85
2018-06-14T07:53:23.749Z,20.61
2018-06-14T07:54:23.773Z,20.62
2018-06-14T07:55:23.837Z,20.72
2018-06-14T07:56:23.803Z,20.95
2018-06-14T07:57:23.827Z,20.76
2018-06-14T07:58:23.874Z,20.98
2018-06-14T07:59:23.864Z,21.34
2018-06-14T08:00:23.885Z,21.58
2018-06-14T08:01:23.952Z,21.58
2018-06-14T08:02:23.917Z,21.52
2018-06-14T08:03:23.933Z,21.74
2018-06-14T08:04:23.982Z,21.99
2018-06-14T08:05:23.975Z,22.09
2018-06-14T08:06:24.015Z,21.82
2018-06-14T08:07:24.066Z,22.03
2018-06-14T08:08:24.035Z,22.21
2018-06-14T08:09:24.050Z,22.31
2018-06-14T08:10:24.067Z,22.61
2018-06-14T08:11:24.091Z,22.68
2018-06-14T08:12:24.152Z,22.55
2018-06-14T08:13:24.175Z,22.64
2018-06-14T08:14:24.141Z,22.36
2018-06-14T08:15:24.168Z,22.52
2018-06-14T08:16:24.182Z,22.55
2018-06-14T08:17:24.205Z,22.52
2018-06-14T08:18:24.223Z,22.31
2018-06-14T08:19:24.246Z,22.55
2018-06-14T08:20:24.264Z,22.64
2018-06-14T08:21:24.278Z,22.73
2018-06-14T08:22:24.299Z,22.67
2018-06-14T08:23:24.315Z,22.83
2018-06-14T08:24:24.338Z,22.88
2018-06-14T08:25:24.357Z,22.82
2018-06-14T08:26:24.379Z,22.91
2018-06-14T08:27:24.412Z,22.98
2018-06-14T08:28:24.419Z,23.07
2018-06-14T08:29:24.442Z,23.32
2018-06-14T08:30:24.459Z,23.36
2018-06-14T08:31:24.473Z,22.94
2018-06-14T08:32:24.497Z,23.16
2018-06-14T08:33:24.545Z,23.31
2018-06-14T08:34:24.534Z,23.47
2018-06-14T08:35:24.559Z,23.28
2018-06-14T08:36:24.575Z,23.40
2018-06-14T08:37:24.644Z,23.51
2018-06-14T08:38:24.613Z,23.73
2018-06-14T08:39:24.635Z,23.75
2018-06-14T08:40:24.659Z,23.58
2018-06-14T08:41:24.681Z,23.66
2018-06-14T08:42:24.694Z,23.90
2018-06-14T08:43:24.764Z,23.85
2018-06-14T08:44:24.735Z,24.21
2018-06-14T08:45:24.774Z,24.27
2018-06-14T08:46:24.776Z,23.84
2018-06-14T08:47:24.796Z,23.93
2018-06-14T08:48:24.814Z,24.25
2018-06-14T08:49:24.886Z,24.24
2018-06-14T08:50:24.861Z,24.09
2018-06-14T08:51:24.878Z,23.91
2018-06-14T08:52:24.898Z,23.60
2018-06-14T08:53:24.915Z,23.58
2018-06-14T08:54:24.938Z,23.47
2018-06-14T08:55:24.961Z,23.93
2018-06-14T08:56:24.980Z,24.00
2018-06-14T08:57:25.030Z,24.27
2018-06-14T08:58:25.018Z,24.73
2018-06-14T08:59:25.052Z,24.73
2018-06-14T09:00:25.061Z,25.08
2018-06-14T09:01:25.149Z,24.85
2018-06-14T09:02:25.105Z,25.02
2018-06-14T09:03:25.177Z,25.20
2018-06-14T09:04:25.144Z,24.85
2018-06-14T09:05:25.166Z,24.98
2018-06-14T09:06:25.189Z,25.00
2018-06-14T09:07:25.207Z,25.15
2018-06-14T09:08:25.228Z,25.18
2018-06-14T09:09:25.278Z,25.17
2018-06-14T09:10:25.275Z,24.60
2018-06-14T09:11:25.391Z,24.27
2018-06-14T09:12:25.315Z,24.53
2018-06-14T09:13:25.336Z,24.55
2018-06-14T09:14:25.362Z,24.50
2018-06-14T09:15:25.438Z,24.91
2018-06-14T09:16:25.396Z,25.15
2018-06-14T09:17:25.416Z,24.90
2018-06-14T09:18:25.441Z,24.42
2018-06-14T09:19:25.513Z,24.35
2018-06-14T09:20:25.483Z,24.39
2018-06-14T09:21:25.501Z,24.32
2018-06-14T09:22:25.524Z,24.45
2018-06-14T09:23:25.544Z,24.83
2018-06-14T09:24:25.571Z,25.13
2018-06-14T09:25:25.590Z,25.52
2018-06-14T09:26:25.611Z,25.83
2018-06-14T09:27:25.633Z,25.85
2018-06-14T09:28:25.659Z,25.88
2018-06-14T09:29:25.675Z,26.20
2018-06-14T09:30:25.692Z,26.26
2018-06-14T09:31:25.718Z,26.06
2018-06-14T09:32:25.738Z,25.70
2018-06-14T09:33:25.756Z,25.27
2018-06-14T09:34:25.860Z,25.40
2018-06-14T09:35:25.805Z,25.60
2018-06-14T09:36:25.822Z,25.62
2018-06-14T09:37:25.843Z,25.17
2018-06-14T09:38:25.868Z,25.52
2018-06-14T09:39:25.893Z,25.51
2018-06-14T09:40:25.976Z,25.33
2018-06-14T09:41:25.931Z,25.13
2018-06-14T09:42:25.950Z,25.24
2018-06-14T09:43:25.974Z,25.46
2018-06-14T09:44:25.996Z,25.46
2018-06-14T09:45:26.012Z,25.57
2018-06-14T09:46:26.076Z,25.39
2018-06-14T09:47:26.057Z,25.69
2018-06-14T09:48:26.133Z,25.67
2018-06-14T09:49:26.116Z,25.25
2018-06-14T09:50:26.250Z,25.90
2018-06-14T09:51:26.146Z,26.40
2018-06-14T09:52:26.241Z,26.76
2018-06-14T09:53:26.189Z,26.95
2018-06-14T09:54:26.213Z,26.52
2018-06-14T09:55:26.234Z,26.58
2018-06-14T09:56:26.253Z,26.48
2018-06-14T09:58:26.294Z,26.58
2018-06-14T09:59:26.314Z,26.51
2018-06-14T10:00:26.443Z,26.94
2018-06-14T10:01:26.366Z,26.89
2018-06-14T10:02:26.381Z,26.91
2018-06-14T10:03:26.408Z,26.07
2018-06-14T10:04:26.431Z,26.17
2018-06-14T10:05:26.474Z,26.33
2018-06-14T10:06:26.531Z,26.52
2018-06-14T10:07:26.496Z,26.45
2018-06-14T10:08:26.524Z,26.44
2018-06-14T10:09:26.538Z,26.40
2018-06-14T10:10:26.606Z,25.95
2018-06-14T10:11:26.589Z,25.73
2018-06-14T10:12:26.659Z,25.92
2018-06-14T10:13:26.632Z,26.25
2018-06-14T10:14:26.650Z,26.35
2018-06-14T10:15:26.670Z,26.36
2018-06-14T10:16:26.740Z,26.60
2018-06-14T10:17:26.766Z,26.48
2018-06-14T10:21:26.802Z,26.73
2018-06-14T10:27:26.944Z,27.65
2018-06-14T10:28:27.029Z,27.72
2018-06-14T10:29:27.018Z,27.46
2018-06-14T10:30:27.006Z,27.22
2018-06-14T10:31:27.031Z,27.04
2018-06-14T10:32:27.052Z,27.62
2018-06-14T10:33:27.079Z,27.79
2018-06-14T10:34:27.130Z,28.07
2018-06-14T10:35:27.128Z,27.96
2018-06-14T10:36:27.152Z,27.31
2018-06-14T10:37:27.164Z,27.37
2018-06-14T10:38:27.188Z,27.31
2018-06-14T10:39:27.246Z,27.57
2018-06-14T10:40:27.234Z,27.60
2018-06-14T10:41:27.256Z,26.95
2018-06-14T10:42:27.275Z,26.37
2018-06-14T10:43:27.305Z,26.40
2018-06-14T10:44:27.325Z,26.40
2018-06-14T10:45:27.349Z,26.47
2018-06-14T10:46:27.381Z,26.44
2018-06-14T10:47:27.395Z,26.44
2018-06-14T10:48:27.417Z,26.51
2018-06-14T10:49:27.436Z,26.65
2018-06-14T10:50:27.456Z,26.88
2018-06-14T10:51:27.486Z,27.02
2018-06-14T10:52:27.604Z,27.34
2018-06-14T10:53:27.627Z,27.59
2018-06-14T10:54:27.554Z,27.43
2018-06-14T10:55:27.573Z,27.06
2018-06-14T10:56:27.601Z,26.94
2018-06-14T10:57:27.621Z,26.73
2018-06-14T10:58:27.697Z,26.84
2018-06-14T10:59:27.719Z,26.80
2018-06-14T11:00:27.697Z,26.85
2018-06-14T11:01:27.707Z,27.04
2018-06-14T11:02:27.734Z,27.18
2018-06-14T11:03:27.755Z,27.46
2018-06-14T11:04:27.836Z,27.09
2018-06-14T11:05:27.801Z,27.32
2018-06-14T11:06:27.830Z,27.85
2018-06-14T11:07:27.844Z,28.02
2018-06-14T11:08:27.868Z,28.58
2018-06-14T11:09:27.892Z,29.11
2018-06-14T11:10:27.976Z,29.21
2018-06-14T11:11:27.935Z,29.27
2018-06-14T11:12:27.965Z,28.71
2018-06-14T11:13:27.980Z,28.37
2018-06-14T11:14:28.004Z,28.29
2018-06-14T11:15:28.029Z,27.94
2018-06-14T11:16:28.050Z,27.92
2018-06-14T11:17:28.076Z,28.18
2018-06-14T11:18:28.111Z,27.63
2018-06-14T11:19:28.140Z,27.32
2018-06-14T11:20:28.145Z,27.46
2018-06-14T11:21:28.176Z,27.59
2018-06-14T11:22:28.197Z,27.65
2018-06-14T11:23:28.218Z,27.99
2018-06-14T11:24:28.238Z,27.57
2018-06-14T11:25:28.258Z,27.77
2018-06-14T11:26:28.282Z,28.14
2018-06-14T11:27:28.313Z,28.41
2018-06-14T11:28:28.336Z,28.30
2018-06-14T11:29:28.405Z,28.04
2018-06-14T11:30:28.402Z,27.75
2018-06-14T11:31:28.400Z,28.09
2018-06-14T11:32:28.426Z,28.02
2018-06-14T11:33:28.453Z,28.36
2018-06-14T11:34:28.474Z,28.15
2018-06-14T11:35:28.546Z,28.31
2018-06-14T11:36:28.524Z,28.46
2018-06-14T11:37:28.543Z,28.88
2018-06-14T11:38:28.569Z,29.14
2018-06-14T11:39:28.590Z,29.16
2018-06-14T11:40:28.619Z,29.31
2018-06-14T11:41:28.683Z,29.48
2018-06-14T11:42:28.659Z,29.67
2018-06-14T11:43:28.684Z,29.31
2018-06-14T11:44:28.706Z,29.31
2018-06-14T11:45:28.729Z,29.26
2018-06-14T11:46:28.753Z,29.36
2018-06-14T11:47:28.779Z,28.93
2018-06-14T11:48:28.800Z,28.44
2018-06-14T11:49:28.827Z,28.29
2018-06-14T11:50:28.846Z,27.97
2018-06-14T11:51:28.869Z,28.25
2018-06-14T11:52:28.899Z,28.41
2018-06-14T11:53:28.983Z,28.71
2018-06-14T11:54:28.943Z,28.98
2018-06-14T11:55:28.973Z,28.34
2018-06-14T11:56:28.991Z,28.78
2018-06-14T11:57:29.013Z,28.88
2018-06-14T11:58:29.046Z,28.98
2018-06-14T11:59:29.132Z,28.93
2018-06-14T12:00:29.090Z,28.19
2018-06-14T12:01:29.113Z,28.40
2018-06-14T12:02:29.136Z,27.97
2018-06-14T12:03:29.158Z,28.36
2018-06-14T12:04:29.177Z,28.55
2018-06-14T12:05:29.275Z,28.49
2018-06-14T12:06:29.230Z,28.48
2018-06-14T12:07:29.251Z,28.56
2018-06-14T12:08:29.361Z,28.12
2018-06-14T12:09:29.297Z,28.03
2018-06-14T12:10:29.327Z,28.22
2018-06-14T12:11:29.417Z,28.15
2018-06-14T12:12:29.373Z,28.41
2018-06-14T12:13:29.393Z,28.76
2018-06-14T12:14:29.417Z,28.89
2018-06-14T12:15:29.436Z,28.83
2018-06-14T12:16:29.463Z,29.00
2018-06-14T12:17:29.583Z,29.06
2018-06-14T12:18:29.506Z,29.18
2018-06-14T12:19:29.532Z,28.96
2018-06-14T12:20:29.570Z,28.54
2018-06-14T12:21:29.594Z,28.34
2018-06-14T12:22:29.603Z,28.66
2018-06-14T12:23:29.686Z,28.88
2018-06-14T12:24:29.659Z,29.08
2018-06-14T12:25:29.684Z,28.64
2018-06-14T12:26:29.699Z,29.12
2018-06-14T12:27:29.734Z,28.96
2018-06-14T12:28:29.746Z,28.98
2018-06-14T12:29:29.819Z,28.70
2018-06-14T12:30:29.807Z,28.61
2018-06-14T12:31:29.818Z,28.73
2018-06-14T12:32:29.843Z,29.02
2018-06-14T12:33:29.863Z,29.04
2018-06-14T12:34:29.887Z,29.28
2018-06-14T12:36:29.935Z,28.68
2018-06-14T12:37:29.958Z,28.74
2018-06-14T12:38:29.984Z,28.54
2018-06-14T12:39:30.010Z,28.37
2018-06-14T12:40:30.036Z,28.36
2018-06-14T12:41:30.060Z,29.00
2018-06-14T12:42:30.081Z,29.41
2018-06-14T12:43:30.099Z,29.27
2018-06-14T12:45:30.148Z,28.95
2018-06-14T12:46:30.175Z,29.06
2018-06-14T12:47:30.216Z,29.51
2018-06-14T12:48:30.218Z,29.31
2018-06-14T12:49:30.244Z,29.43
2018-06-14T12:50:30.266Z,29.53
2018-06-14T12:51:30.291Z,29.86
2018-06-14T12:52:30.316Z,29.53
2018-06-14T12:53:30.348Z,29.67
2018-06-14T12:54:30.367Z,29.57
2018-06-14T12:55:30.392Z,29.86
2018-06-14T12:56:30.424Z,29.33
2018-06-14T12:57:30.446Z,29.04
2018-06-14T12:58:30.470Z,29.28
2018-06-14T12:59:30.482Z,29.05
2018-06-14T13:00:30.582Z,29.12
2018-06-14T13:01:30.532Z,29.43
2018-06-14T13:02:30.555Z,29.68
2018-06-14T13:03:30.587Z,29.65
2018-06-14T13:04:30.605Z,29.73